Meath Environmental Platform

Observations for Trim Patrick St

Time AQI Temp °C Hum % Pres Pa CO μg/m³ H₂S μg/m³ NO μg/m³ NO₂ μg/m³ O₃ μg/m³ SO₂ μg/m³ PM1 μg/m³ PM2.5 μg/m³ PM10 μg/m³
Wednesday 5 August 2026
12:28 2 21.3 54 73,652 0 0 2.79 8.98 78.02 3.14 2 6.19 6.81
12:27 2 21.2 54 73,695 0 0 2.88 7 64.91 3.43 2 6.19 6.81
12:26 2 21.2 53 73,758 0 0 2.86 6.92 64.76 3.08 2 6.2 6.82
12:25 2 21.2 54 73,783 0 0 2.83 6.58 64.83 3.95 2 6.17 6.79
12:24 2 21.2 54 73,781 0 0 2.88 7.28 63.57 3.65 2 6.19 6.8
12:23 2 21.2 54 73,707 0 1.93 2.73 11.66 77.36 4.33 2 6.17 6.78
12:22 2 21.2 54 73,577 0 0.75 2.58 10.61 74.69 3.72 2.86 6.94 7.64
12:21 2 21.3 53 73,412 0 0 2.75 11.54 75.09 3.82 2 6.21 6.83
12:20 2 21.3 53 73,288 0 0 2.76 8.41 64.24 3.45 2 6.23 6.85
12:19 2 21.3 53 73,304 0 0 2.7 7.85 68.16 3.99 2 6.24 6.87
12:18 2 21.3 53 73,355 0 0 2.69 7.25 72 4.26 2 6.25 6.87
12:17 2 21.4 52 73,432 0 0 2.75 7.05 63.71 3.87 2 6.27 6.9
12:16 2 21.4 52 73,497 0 0 2.68 5.26 62.89 3.41 2 6.29 6.92
12:15 2 21.5 52 73,616 0 0 2.69 5.17 62.92 3.97 2 6.26 6.89
12:14 2 21.5 53 73,711 0 0 2.78 8.18 63.04 3.67 2 6.24 6.86
12:13 2 21.6 53 73,685 0 0 2.77 6.93 61.09 3.98 2 6.23 6.85
12:12 2 21.6 53 73,656 0 0.18 2.83 10.09 73.82 4.48 2.86 6.96 7.66
12:11 2 21.6 53 73,542 0 0 2.86 11.29 79.29 3.71 2 6.21 6.83
12:10 2 21.6 53 73,455 0 0.28 2.87 9.25 74.17 4.34 2 6.21 6.83
12:09 2 21.6 53 73,342 0 0 2.89 9.38 74.24 3.64 2 6.22 6.84